sensor_id;sensor_type;location;lat;lon;timestamp;P1;durP1;ratioP1;P2;durP2;ratioP2
20140;SDS011;10231;47.702;9.826;2022-07-12T00:00:51;1.03;;;1.03;;
20140;SDS011;10231;47.702;9.826;2022-07-12T00:03:16;1.20;;;1.10;;
20140;SDS011;10231;47.702;9.826;2022-07-12T00:05:42;0.83;;;0.83;;
20140;SDS011;10231;47.702;9.826;2022-07-12T00:08:08;1.33;;;1.23;;
20140;SDS011;10231;47.702;9.826;2022-07-12T00:10:33;1.13;;;1.10;;
20140;SDS011;10231;47.702;9.826;2022-07-12T00:12:59;1.07;;;0.90;;
20140;SDS011;10231;47.702;9.826;2022-07-12T00:15:25;1.40;;;1.07;;
20140;SDS011;10231;47.702;9.826;2022-07-12T00:17:50;1.10;;;1.00;;
20140;SDS011;10231;47.702;9.826;2022-07-12T00:20:16;1.30;;;1.30;;
20140;SDS011;10231;47.702;9.826;2022-07-12T00:22:42;1.00;;;0.90;;
20140;SDS011;10231;47.702;9.826;2022-07-12T00:25:08;1.03;;;0.90;;
20140;SDS011;10231;47.702;9.826;2022-07-12T00:27:34;1.10;;;1.10;;
20140;SDS011;10231;47.702;9.826;2022-07-12T00:29:59;0.90;;;0.90;;
20140;SDS011;10231;47.702;9.826;2022-07-12T00:32:25;1.10;;;1.10;;
20140;SDS011;10231;47.702;9.826;2022-07-12T00:34:50;1.90;;;1.10;;
20140;SDS011;10231;47.702;9.826;2022-07-12T00:37:16;1.33;;;1.00;;
20140;SDS011;10231;47.702;9.826;2022-07-12T00:39:42;2.20;;;1.30;;
20140;SDS011;10231;47.702;9.826;2022-07-12T00:42:07;1.23;;;1.13;;
20140;SDS011;10231;47.702;9.826;2022-07-12T00:44:33;0.93;;;0.93;;
20140;SDS011;10231;47.702;9.826;2022-07-12T00:46:59;0.93;;;0.80;;
20140;SDS011;10231;47.702;9.826;2022-07-12T00:49:26;1.30;;;1.23;;
20140;SDS011;10231;47.702;9.826;2022-07-12T00:51:53;2.40;;;1.20;;
20140;SDS011;10231;47.702;9.826;2022-07-12T00:54:19;1.20;;;1.10;;
20140;SDS011;10231;47.702;9.826;2022-07-12T00:56:45;1.27;;;1.10;;
20140;SDS011;10231;47.702;9.826;2022-07-12T00:59:11;1.37;;;1.00;;
20140;SDS011;10231;47.702;9.826;2022-07-12T01:01:36;1.87;;;1.20;;
20140;SDS011;10231;47.702;9.826;2022-07-12T01:04:03;1.30;;;1.30;;
20140;SDS011;10231;47.702;9.826;2022-07-12T01:06:30;1.53;;;1.07;;
20140;SDS011;10231;47.702;9.826;2022-07-12T01:08:56;1.10;;;1.10;;
20140;SDS011;10231;47.702;9.826;2022-07-12T01:11:25;4.90;;;1.60;;
20140;SDS011;10231;47.702;9.826;2022-07-12T01:13:54;1.20;;;1.20;;
20140;SDS011;10231;47.702;9.826;2022-07-12T01:16:20;1.10;;;1.10;;
20140;SDS011;10231;47.702;9.826;2022-07-12T01:18:46;1.60;;;1.50;;
20140;SDS011;10231;47.702;9.826;2022-07-12T01:21:15;1.50;;;1.40;;
20140;SDS011;10231;47.702;9.826;2022-07-12T01:23:45;1.37;;;1.30;;
20140;SDS011;10231;47.702;9.826;2022-07-12T01:26:12;1.77;;;1.10;;
20140;SDS011;10231;47.702;9.826;2022-07-12T01:28:37;1.50;;;1.40;;
20140;SDS011;10231;47.702;9.826;2022-07-12T01:31:03;1.93;;;1.37;;
20140;SDS011;10231;47.702;9.826;2022-07-12T01:33:30;1.53;;;1.43;;
20140;SDS011;10231;47.702;9.826;2022-07-12T01:35:56;1.50;;;1.40;;
20140;SDS011;10231;47.702;9.826;2022-07-12T01:38:22;1.27;;;1.03;;
20140;SDS011;10231;47.702;9.826;2022-07-12T01:40:48;1.77;;;1.33;;
20140;SDS011;10231;47.702;9.826;2022-07-12T01:43:13;1.73;;;1.20;;
20140;SDS011;10231;47.702;9.826;2022-07-12T01:45:39;1.37;;;1.27;;
20140;SDS011;10231;47.702;9.826;2022-07-12T01:48:06;1.63;;;1.47;;
20140;SDS011;10231;47.702;9.826;2022-07-12T01:50:31;1.50;;;1.03;;
20140;SDS011;10231;47.702;9.826;2022-07-12T01:52:57;1.67;;;1.40;;
20140;SDS011;10231;47.702;9.826;2022-07-12T01:55:25;2.07;;;1.57;;
20140;SDS011;10231;47.702;9.826;2022-07-12T01:57:50;1.30;;;1.00;;
20140;SDS011;10231;47.702;9.826;2022-07-12T02:00:16;1.50;;;1.40;;
20140;SDS011;10231;47.702;9.826;2022-07-12T02:02:45;1.30;;;1.30;;
20140;SDS011;10231;47.702;9.826;2022-07-12T02:05:11;1.73;;;1.33;;
20140;SDS011;10231;47.702;9.826;2022-07-12T02:07:37;1.30;;;1.20;;
20140;SDS011;10231;47.702;9.826;2022-07-12T02:10:05;1.10;;;1.10;;
20140;SDS011;10231;47.702;9.826;2022-07-12T02:12:32;1.73;;;1.57;;
20140;SDS011;10231;47.702;9.826;2022-07-12T02:14:58;1.70;;;1.60;;
20140;SDS011;10231;47.702;9.826;2022-07-12T02:17:24;1.60;;;1.50;;
20140;SDS011;10231;47.702;9.826;2022-07-12T02:19:49;1.40;;;1.23;;
20140;SDS011;10231;47.702;9.826;2022-07-12T02:22:15;1.57;;;1.27;;
20140;SDS011;10231;47.702;9.826;2022-07-12T02:24:41;1.80;;;1.43;;
20140;SDS011;10231;47.702;9.826;2022-07-12T02:27:06;1.40;;;1.30;;
20140;SDS011;10231;47.702;9.826;2022-07-12T02:29:32;1.40;;;1.30;;
20140;SDS011;10231;47.702;9.826;2022-07-12T02:31:58;1.70;;;1.60;;
20140;SDS011;10231;47.702;9.826;2022-07-12T02:34:24;1.77;;;1.67;;
20140;SDS011;10231;47.702;9.826;2022-07-12T02:36:50;2.10;;;1.40;;
20140;SDS011;10231;47.702;9.826;2022-07-12T02:39:16;1.87;;;1.50;;
20140;SDS011;10231;47.702;9.826;2022-07-12T02:41:41;1.50;;;1.40;;
20140;SDS011;10231;47.702;9.826;2022-07-12T02:44:07;1.40;;;1.40;;
20140;SDS011;10231;47.702;9.826;2022-07-12T02:46:32;4.10;;;2.07;;
20140;SDS011;10231;47.702;9.826;2022-07-12T02:49:00;2.07;;;1.47;;
20140;SDS011;10231;47.702;9.826;2022-07-12T02:51:25;1.73;;;1.63;;
20140;SDS011;10231;47.702;9.826;2022-07-12T02:53:51;2.13;;;1.70;;
20140;SDS011;10231;47.702;9.826;2022-07-12T02:56:17;1.90;;;1.30;;
20140;SDS011;10231;47.702;9.826;2022-07-12T02:58:42;2.43;;;1.60;;
20140;SDS011;10231;47.702;9.826;2022-07-12T03:01:08;1.90;;;1.80;;
20140;SDS011;10231;47.702;9.826;2022-07-12T03:03:33;1.70;;;1.60;;
20140;SDS011;10231;47.702;9.826;2022-07-12T03:05:59;2.87;;;1.90;;
20140;SDS011;10231;47.702;9.826;2022-07-12T03:08:25;2.63;;;2.40;;
20140;SDS011;10231;47.702;9.826;2022-07-12T03:10:50;2.13;;;2.03;;
20140;SDS011;10231;47.702;9.826;2022-07-12T03:13:16;2.07;;;1.97;;
20140;SDS011;10231;47.702;9.826;2022-07-12T03:15:41;2.97;;;2.17;;
20140;SDS011;10231;47.702;9.826;2022-07-12T03:18:07;1.97;;;1.77;;
20140;SDS011;10231;47.702;9.826;2022-07-12T03:20:33;2.73;;;1.93;;
20140;SDS011;10231;47.702;9.826;2022-07-12T03:22:59;1.80;;;1.70;;
20140;SDS011;10231;47.702;9.826;2022-07-12T03:25:24;2.00;;;1.90;;
20140;SDS011;10231;47.702;9.826;2022-07-12T03:27:50;3.37;;;1.97;;
20140;SDS011;10231;47.702;9.826;2022-07-12T03:30:16;2.17;;;2.07;;
20140;SDS011;10231;47.702;9.826;2022-07-12T03:32:42;3.43;;;2.37;;
20140;SDS011;10231;47.702;9.826;2022-07-12T03:35:09;2.33;;;2.20;;
20140;SDS011;10231;47.702;9.826;2022-07-12T03:40:07;2.20;;;1.90;;
20140;SDS011;10231;47.702;9.826;2022-07-12T03:42:33;2.90;;;2.20;;
20140;SDS011;10231;47.702;9.826;2022-07-12T03:45:00;2.63;;;2.43;;
20140;SDS011;10231;47.702;9.826;2022-07-12T03:47:26;3.10;;;2.80;;
20140;SDS011;10231;47.702;9.826;2022-07-12T03:49:51;2.90;;;2.30;;
20140;SDS011;10231;47.702;9.826;2022-07-12T03:52:17;2.43;;;2.23;;
20140;SDS011;10231;47.702;9.826;2022-07-12T03:54:42;2.40;;;2.30;;
20140;SDS011;10231;47.702;9.826;2022-07-12T03:57:08;2.93;;;2.73;;
20140;SDS011;10231;47.702;9.826;2022-07-12T03:59:43;2.70;;;2.50;;
20140;SDS011;10231;47.702;9.826;2022-07-12T04:02:10;2.27;;;2.17;;
20140;SDS011;10231;47.702;9.826;2022-07-12T04:04:37;2.40;;;2.13;;
20140;SDS011;10231;47.702;9.826;2022-07-12T04:07:03;2.13;;;2.03;;
20140;SDS011;10231;47.702;9.826;2022-07-12T04:09:29;2.30;;;2.20;;
20140;SDS011;10231;47.702;9.826;2022-07-12T04:11:56;1.90;;;1.80;;
20140;SDS011;10231;47.702;9.826;2022-07-12T04:14:21;3.17;;;2.10;;
20140;SDS011;10231;47.702;9.826;2022-07-12T04:16:47;4.00;;;3.60;;
20140;SDS011;10231;47.702;9.826;2022-07-12T04:19:12;3.70;;;2.20;;
20140;SDS011;10231;47.702;9.826;2022-07-12T04:21:38;2.13;;;2.03;;
20140;SDS011;10231;47.702;9.826;2022-07-12T04:24:04;2.10;;;2.00;;
20140;SDS011;10231;47.702;9.826;2022-07-12T04:26:30;2.33;;;2.23;;
20140;SDS011;10231;47.702;9.826;2022-07-12T04:28:56;2.43;;;2.33;;
20140;SDS011;10231;47.702;9.826;2022-07-12T04:31:22;3.00;;;2.50;;
20140;SDS011;10231;47.702;9.826;2022-07-12T04:33:48;2.20;;;2.10;;
20140;SDS011;10231;47.702;9.826;2022-07-12T04:36:14;3.03;;;2.73;;
20140;SDS011;10231;47.702;9.826;2022-07-12T04:38:39;3.23;;;2.70;;
20140;SDS011;10231;47.702;9.826;2022-07-12T04:41:05;2.20;;;2.10;;
20140;SDS011;10231;47.702;9.826;2022-07-12T04:43:31;2.77;;;2.57;;
20140;SDS011;10231;47.702;9.826;2022-07-12T04:46:04;2.60;;;2.40;;
20140;SDS011;10231;47.702;9.826;2022-07-12T04:48:31;3.13;;;2.83;;
20140;SDS011;10231;47.702;9.826;2022-07-12T04:50:57;2.87;;;2.63;;
20140;SDS011;10231;47.702;9.826;2022-07-12T04:53:22;2.97;;;2.70;;
20140;SDS011;10231;47.702;9.826;2022-07-12T04:55:48;3.90;;;2.73;;
20140;SDS011;10231;47.702;9.826;2022-07-12T04:58:13;2.80;;;2.60;;
20140;SDS011;10231;47.702;9.826;2022-07-12T05:00:39;3.90;;;2.93;;
20140;SDS011;10231;47.702;9.826;2022-07-12T05:03:05;3.47;;;3.03;;
20140;SDS011;10231;47.702;9.826;2022-07-12T05:05:30;3.10;;;2.57;;
20140;SDS011;10231;47.702;9.826;2022-07-12T05:07:56;3.03;;;2.73;;
20140;SDS011;10231;47.702;9.826;2022-07-12T05:10:22;3.27;;;3.00;;
20140;SDS011;10231;47.702;9.826;2022-07-12T05:12:47;3.00;;;2.43;;
20140;SDS011;10231;47.702;9.826;2022-07-12T05:15:13;2.90;;;2.70;;
20140;SDS011;10231;47.702;9.826;2022-07-12T05:17:39;3.13;;;2.93;;
20140;SDS011;10231;47.702;9.826;2022-07-12T05:20:04;2.90;;;2.60;;
20140;SDS011;10231;47.702;9.826;2022-07-12T05:22:31;2.97;;;2.77;;
20140;SDS011;10231;47.702;9.826;2022-07-12T05:24:56;2.93;;;2.73;;
20140;SDS011;10231;47.702;9.826;2022-07-12T05:27:22;3.50;;;2.53;;
20140;SDS011;10231;47.702;9.826;2022-07-12T05:29:48;3.17;;;2.50;;
20140;SDS011;10231;47.702;9.826;2022-07-12T05:32:13;2.90;;;2.70;;
20140;SDS011;10231;47.702;9.826;2022-07-12T05:34:39;3.30;;;2.97;;
20140;SDS011;10231;47.702;9.826;2022-07-12T05:37:04;2.50;;;2.30;;
20140;SDS011;10231;47.702;9.826;2022-07-12T05:39:30;2.80;;;2.60;;
20140;SDS011;10231;47.702;9.826;2022-07-12T05:41:55;2.70;;;2.50;;
20140;SDS011;10231;47.702;9.826;2022-07-12T05:44:21;2.73;;;2.47;;
20140;SDS011;10231;47.702;9.826;2022-07-12T05:46:47;2.83;;;2.30;;
20140;SDS011;10231;47.702;9.826;2022-07-12T05:49:13;2.67;;;2.47;;
20140;SDS011;10231;47.702;9.826;2022-07-12T05:51:39;2.73;;;2.53;;
20140;SDS011;10231;47.702;9.826;2022-07-12T05:54:23;2.63;;;2.47;;
20140;SDS011;10231;47.702;9.826;2022-07-12T05:56:48;2.30;;;2.10;;
20140;SDS011;10231;47.702;9.826;2022-07-12T05:59:16;3.83;;;2.07;;
20140;SDS011;10231;47.702;9.826;2022-07-12T06:01:44;3.43;;;2.27;;
20140;SDS011;10231;47.702;9.826;2022-07-12T06:04:10;3.10;;;2.57;;
20140;SDS011;10231;47.702;9.826;2022-07-12T06:06:35;2.30;;;2.10;;
20140;SDS011;10231;47.702;9.826;2022-07-12T06:09:02;2.27;;;2.17;;
20140;SDS011;10231;47.702;9.826;2022-07-12T06:11:28;2.30;;;2.10;;
20140;SDS011;10231;47.702;9.826;2022-07-12T06:13:56;2.93;;;2.33;;
20140;SDS011;10231;47.702;9.826;2022-07-12T06:16:22;2.33;;;2.23;;
20140;SDS011;10231;47.702;9.826;2022-07-12T06:18:47;1.73;;;1.63;;
20140;SDS011;10231;47.702;9.826;2022-07-12T06:21:13;4.13;;;2.27;;
20140;SDS011;10231;47.702;9.826;2022-07-12T06:23:39;2.70;;;2.03;;
20140;SDS011;10231;47.702;9.826;2022-07-12T06:26:04;2.10;;;2.00;;
20140;SDS011;10231;47.702;9.826;2022-07-12T06:28:30;2.23;;;2.10;;
20140;SDS011;10231;47.702;9.826;2022-07-12T06:30:55;3.70;;;2.10;;
20140;SDS011;10231;47.702;9.826;2022-07-12T06:33:21;2.83;;;2.20;;
20140;SDS011;10231;47.702;9.826;2022-07-12T06:35:46;1.67;;;1.57;;
20140;SDS011;10231;47.702;9.826;2022-07-12T06:38:12;1.80;;;1.70;;
20140;SDS011;10231;47.702;9.826;2022-07-12T06:40:38;2.00;;;1.90;;
20140;SDS011;10231;47.702;9.826;2022-07-12T06:43:08;1.80;;;1.70;;
20140;SDS011;10231;47.702;9.826;2022-07-12T06:45:38;2.03;;;1.93;;
20140;SDS011;10231;47.702;9.826;2022-07-12T06:48:04;1.87;;;1.73;;
20140;SDS011;10231;47.702;9.826;2022-07-12T06:50:30;1.83;;;1.73;;
20140;SDS011;10231;47.702;9.826;2022-07-12T06:52:56;2.40;;;2.00;;
20140;SDS011;10231;47.702;9.826;2022-07-12T06:55:22;1.83;;;1.73;;
20140;SDS011;10231;47.702;9.826;2022-07-12T06:57:48;1.83;;;1.73;;
20140;SDS011;10231;47.702;9.826;2022-07-12T07:00:14;2.20;;;2.00;;
20140;SDS011;10231;47.702;9.826;2022-07-12T07:02:40;2.27;;;2.03;;
20140;SDS011;10231;47.702;9.826;2022-07-12T07:05:06;1.80;;;1.60;;
20140;SDS011;10231;47.702;9.826;2022-07-12T07:07:32;1.83;;;1.57;;
20140;SDS011;10231;47.702;9.826;2022-07-12T07:09:58;1.53;;;1.40;;
20140;SDS011;10231;47.702;9.826;2022-07-12T07:12:24;1.60;;;1.53;;
20140;SDS011;10231;47.702;9.826;2022-07-12T07:14:49;2.37;;;1.67;;
20140;SDS011;10231;47.702;9.826;2022-07-12T07:17:16;1.77;;;1.67;;
20140;SDS011;10231;47.702;9.826;2022-07-12T07:19:42;1.50;;;1.40;;
20140;SDS011;10231;47.702;9.826;2022-07-12T07:22:08;1.70;;;1.40;;
20140;SDS011;10231;47.702;9.826;2022-07-12T07:24:34;1.73;;;1.20;;
20140;SDS011;10231;47.702;9.826;2022-07-12T07:27:00;1.27;;;1.20;;
20140;SDS011;10231;47.702;9.826;2022-07-12T07:29:26;2.30;;;1.27;;
20140;SDS011;10231;47.702;9.826;2022-07-12T07:32:10;1.70;;;1.30;;
20140;SDS011;10231;47.702;9.826;2022-07-12T07:34:36;1.27;;;1.10;;
20140;SDS011;10231;47.702;9.826;2022-07-12T07:37:02;1.60;;;1.40;;
20140;SDS011;10231;47.702;9.826;2022-07-12T07:39:28;1.00;;;1.00;;
20140;SDS011;10231;47.702;9.826;2022-07-12T07:41:54;1.30;;;1.20;;
20140;SDS011;10231;47.702;9.826;2022-07-12T07:44:19;0.83;;;0.83;;
20140;SDS011;10231;47.702;9.826;2022-07-12T07:46:45;0.80;;;0.80;;
20140;SDS011;10231;47.702;9.826;2022-07-12T07:49:10;1.47;;;0.80;;
20140;SDS011;10231;47.702;9.826;2022-07-12T07:51:36;0.70;;;0.70;;
20140;SDS011;10231;47.702;9.826;2022-07-12T07:54:02;0.47;;;0.47;;
20140;SDS011;10231;47.702;9.826;2022-07-12T07:56:28;0.90;;;0.90;;
20140;SDS011;10231;47.702;9.826;2022-07-12T07:58:53;0.63;;;0.63;;
20140;SDS011;10231;47.702;9.826;2022-07-12T08:01:19;0.90;;;0.90;;
20140;SDS011;10231;47.702;9.826;2022-07-12T08:03:45;0.70;;;0.70;;
20140;SDS011;10231;47.702;9.826;2022-07-12T08:06:11;0.83;;;0.67;;
20140;SDS011;10231;47.702;9.826;2022-07-12T08:08:36;1.70;;;0.50;;
20140;SDS011;10231;47.702;9.826;2022-07-12T08:11:02;0.77;;;0.60;;
20140;SDS011;10231;47.702;9.826;2022-07-12T08:13:28;0.60;;;0.60;;
20140;SDS011;10231;47.702;9.826;2022-07-12T08:15:53;0.50;;;0.50;;
20140;SDS011;10231;47.702;9.826;2022-07-12T08:18:19;0.80;;;0.60;;
20140;SDS011;10231;47.702;9.826;2022-07-12T08:20:45;0.60;;;0.60;;
20140;SDS011;10231;47.702;9.826;2022-07-12T08:23:11;0.90;;;0.60;;
20140;SDS011;10231;47.702;9.826;2022-07-12T08:25:37;0.67;;;0.57;;
20140;SDS011;10231;47.702;9.826;2022-07-12T08:28:02;0.40;;;0.40;;
20140;SDS011;10231;47.702;9.826;2022-07-12T08:30:28;0.93;;;0.60;;
20140;SDS011;10231;47.702;9.826;2022-07-12T08:32:54;0.40;;;0.40;;
20140;SDS011;10231;47.702;9.826;2022-07-12T08:35:20;1.13;;;0.50;;
20140;SDS011;10231;47.702;9.826;2022-07-12T08:37:45;0.60;;;0.60;;
20140;SDS011;10231;47.702;9.826;2022-07-12T08:40:11;0.37;;;0.37;;
20140;SDS011;10231;47.702;9.826;2022-07-12T08:42:40;1.13;;;0.93;;
20140;SDS011;10231;47.702;9.826;2022-07-12T08:45:07;1.03;;;0.60;;
20140;SDS011;10231;47.702;9.826;2022-07-12T08:47:33;1.00;;;0.43;;
20140;SDS011;10231;47.702;9.826;2022-07-12T08:50:11;0.60;;;0.60;;
20140;SDS011;10231;47.702;9.826;2022-07-12T08:52:47;0.40;;;0.40;;
20140;SDS011;10231;47.702;9.826;2022-07-12T08:55:18;0.50;;;0.50;;
20140;SDS011;10231;47.702;9.826;2022-07-12T08:57:59;3.80;;;1.40;;
20140;SDS011;10231;47.702;9.826;2022-07-12T09:00:30;5.40;;;1.83;;
20140;SDS011;10231;47.702;9.826;2022-07-12T09:02:57;1.07;;;0.97;;
20140;SDS011;10231;47.702;9.826;2022-07-12T09:05:29;0.70;;;0.70;;
20140;SDS011;10231;47.702;9.826;2022-07-12T09:08:09;0.70;;;0.70;;
20140;SDS011;10231;47.702;9.826;2022-07-12T09:10:35;1.43;;;0.90;;
20140;SDS011;10231;47.702;9.826;2022-07-12T09:13:19;2.33;;;1.17;;
20140;SDS011;10231;47.702;9.826;2022-07-12T09:15:45;1.23;;;0.87;;
20140;SDS011;10231;47.702;9.826;2022-07-12T09:18:16;1.70;;;0.80;;
20140;SDS011;10231;47.702;9.826;2022-07-12T09:20:49;1.27;;;1.10;;
20140;SDS011;10231;47.702;9.826;2022-07-12T09:23:16;0.87;;;0.87;;
20140;SDS011;10231;47.702;9.826;2022-07-12T09:25:45;0.47;;;0.47;;
20140;SDS011;10231;47.702;9.826;2022-07-12T09:28:12;2.73;;;0.70;;
20140;SDS011;10231;47.702;9.826;2022-07-12T09:30:46;0.70;;;0.70;;
20140;SDS011;10231;47.702;9.826;2022-07-12T09:33:20;1.37;;;0.73;;
20140;SDS011;10231;47.702;9.826;2022-07-12T09:36:05;1.17;;;0.80;;
20140;SDS011;10231;47.702;9.826;2022-07-12T09:38:52;1.27;;;0.70;;
20140;SDS011;10231;47.702;9.826;2022-07-12T09:41:20;0.80;;;0.80;;
20140;SDS011;10231;47.702;9.826;2022-07-12T09:43:46;0.80;;;0.80;;
20140;SDS011;10231;47.702;9.826;2022-07-12T09:46:16;0.90;;;0.90;;
20140;SDS011;10231;47.702;9.826;2022-07-12T09:48:42;1.10;;;0.97;;
20140;SDS011;10231;47.702;9.826;2022-07-12T09:51:15;0.90;;;0.90;;
20140;SDS011;10231;47.702;9.826;2022-07-12T09:53:48;1.53;;;1.43;;
20140;SDS011;10231;47.702;9.826;2022-07-12T09:56:15;1.20;;;1.10;;
20140;SDS011;10231;47.702;9.826;2022-07-12T09:58:52;2.27;;;1.23;;
20140;SDS011;10231;47.702;9.826;2022-07-12T10:01:20;1.40;;;0.87;;
20140;SDS011;10231;47.702;9.826;2022-07-12T10:03:46;0.90;;;0.90;;
20140;SDS011;10231;47.702;9.826;2022-07-12T10:06:15;2.33;;;0.90;;
20140;SDS011;10231;47.702;9.826;2022-07-12T10:08:45;1.17;;;1.00;;
20140;SDS011;10231;47.702;9.826;2022-07-12T10:11:11;1.53;;;1.07;;
20140;SDS011;10231;47.702;9.826;2022-07-12T10:13:38;1.53;;;0.90;;
20140;SDS011;10231;47.702;9.826;2022-07-12T10:16:04;0.90;;;0.90;;
20140;SDS011;10231;47.702;9.826;2022-07-12T10:18:32;0.83;;;0.83;;
20140;SDS011;10231;47.702;9.826;2022-07-12T10:20:58;1.37;;;1.37;;
20140;SDS011;10231;47.702;9.826;2022-07-12T10:23:31;1.33;;;1.23;;
20140;SDS011;10231;47.702;9.826;2022-07-12T10:26:01;1.40;;;1.20;;
20140;SDS011;10231;47.702;9.826;2022-07-12T10:31:35;1.10;;;1.10;;
20140;SDS011;10231;47.702;9.826;2022-07-12T10:39:23;1.53;;;1.20;;
20140;SDS011;10231;47.702;9.826;2022-07-12T10:44:34;1.17;;;1.17;;
20140;SDS011;10231;47.702;9.826;2022-07-12T10:47:02;1.00;;;1.00;;
20140;SDS011;10231;47.702;9.826;2022-07-12T10:49:30;1.30;;;1.20;;
20140;SDS011;10231;47.702;9.826;2022-07-12T10:54:37;1.40;;;1.30;;
20140;SDS011;10231;47.702;9.826;2022-07-12T10:57:07;1.13;;;1.10;;
20140;SDS011;10231;47.702;9.826;2022-07-12T10:59:33;2.07;;;1.40;;
20140;SDS011;10231;47.702;9.826;2022-07-12T11:02:03;1.57;;;1.50;;
20140;SDS011;10231;47.702;9.826;2022-07-12T11:04:30;1.30;;;1.30;;
20140;SDS011;10231;47.702;9.826;2022-07-12T11:06:56;0.60;;;0.60;;
20140;SDS011;10231;47.702;9.826;2022-07-12T11:09:26;0.80;;;0.80;;
20140;SDS011;10231;47.702;9.826;2022-07-12T11:11:53;1.10;;;1.00;;
20140;SDS011;10231;47.702;9.826;2022-07-12T11:14:28;1.27;;;1.17;;
20140;SDS011;10231;47.702;9.826;2022-07-12T11:16:55;1.50;;;1.23;;
20140;SDS011;10231;47.702;9.826;2022-07-12T11:19:23;0.83;;;0.70;;
20140;SDS011;10231;47.702;9.826;2022-07-12T11:21:52;0.83;;;0.83;;
20140;SDS011;10231;47.702;9.826;2022-07-12T11:24:22;1.07;;;0.97;;
20140;SDS011;10231;47.702;9.826;2022-07-12T11:26:49;0.80;;;0.80;;
20140;SDS011;10231;47.702;9.826;2022-07-12T11:29:15;0.80;;;0.80;;
20140;SDS011;10231;47.702;9.826;2022-07-12T11:31:42;0.80;;;0.80;;
20140;SDS011;10231;47.702;9.826;2022-07-12T11:34:18;4.43;;;0.90;;
20140;SDS011;10231;47.702;9.826;2022-07-12T11:36:50;0.67;;;0.67;;
20140;SDS011;10231;47.702;9.826;2022-07-12T11:39:29;1.40;;;0.90;;
20140;SDS011;10231;47.702;9.826;2022-07-12T11:41:55;0.60;;;0.60;;
20140;SDS011;10231;47.702;9.826;2022-07-12T11:44:27;1.47;;;0.90;;
20140;SDS011;10231;47.702;9.826;2022-07-12T11:47:09;1.33;;;1.00;;
20140;SDS011;10231;47.702;9.826;2022-07-12T11:49:35;0.77;;;0.77;;
20140;SDS011;10231;47.702;9.826;2022-07-12T11:52:03;0.80;;;0.80;;
20140;SDS011;10231;47.702;9.826;2022-07-12T11:54:30;1.70;;;0.90;;
20140;SDS011;10231;47.702;9.826;2022-07-12T11:57:09;0.70;;;0.70;;
20140;SDS011;10231;47.702;9.826;2022-07-12T11:59:35;0.70;;;0.70;;
20140;SDS011;10231;47.702;9.826;2022-07-12T12:02:11;0.70;;;0.70;;
20140;SDS011;10231;47.702;9.826;2022-07-12T12:04:58;0.93;;;0.80;;
20140;SDS011;10231;47.702;9.826;2022-07-12T12:07:23;2.87;;;0.97;;
20140;SDS011;10231;47.702;9.826;2022-07-12T12:12:52;1.80;;;0.70;;
20140;SDS011;10231;47.702;9.826;2022-07-12T12:15:29;1.00;;;0.60;;
20140;SDS011;10231;47.702;9.826;2022-07-12T12:18:04;0.63;;;0.63;;
20140;SDS011;10231;47.702;9.826;2022-07-12T12:20:40;0.60;;;0.60;;
20140;SDS011;10231;47.702;9.826;2022-07-12T12:23:15;0.70;;;0.70;;
20140;SDS011;10231;47.702;9.826;2022-07-12T12:25:44;1.17;;;0.80;;
20140;SDS011;10231;47.702;9.826;2022-07-12T12:28:11;1.03;;;0.60;;
20140;SDS011;10231;47.702;9.826;2022-07-12T12:30:59;0.70;;;0.70;;
20140;SDS011;10231;47.702;9.826;2022-07-12T12:33:34;1.30;;;0.63;;
20140;SDS011;10231;47.702;9.826;2022-07-12T12:36:11;0.70;;;0.70;;
20140;SDS011;10231;47.702;9.826;2022-07-12T12:38:36;0.80;;;0.80;;
20140;SDS011;10231;47.702;9.826;2022-07-12T12:41:02;0.90;;;0.90;;
20140;SDS011;10231;47.702;9.826;2022-07-12T12:43:27;0.80;;;0.80;;
20140;SDS011;10231;47.702;9.826;2022-07-12T12:45:54;0.90;;;0.90;;
20140;SDS011;10231;47.702;9.826;2022-07-12T12:48:22;1.67;;;1.20;;
20140;SDS011;10231;47.702;9.826;2022-07-12T12:50:51;1.10;;;1.00;;
20140;SDS011;10231;47.702;9.826;2022-07-12T12:53:19;1.23;;;1.13;;
20140;SDS011;10231;47.702;9.826;2022-07-12T12:55:46;0.60;;;0.60;;
20140;SDS011;10231;47.702;9.826;2022-07-12T12:58:13;3.33;;;0.87;;
20140;SDS011;10231;47.702;9.826;2022-07-12T13:00:43;1.07;;;0.97;;
20140;SDS011;10231;47.702;9.826;2022-07-12T13:03:10;1.03;;;1.03;;
20140;SDS011;10231;47.702;9.826;2022-07-12T13:05:38;1.10;;;0.83;;
20140;SDS011;10231;47.702;9.826;2022-07-12T13:08:04;1.00;;;1.00;;
20140;SDS011;10231;47.702;9.826;2022-07-12T13:10:32;1.17;;;0.77;;
20140;SDS011;10231;47.702;9.826;2022-07-12T13:12:59;1.37;;;1.03;;
20140;SDS011;10231;47.702;9.826;2022-07-12T13:15:26;0.80;;;0.80;;
20140;SDS011;10231;47.702;9.826;2022-07-12T13:17:52;1.17;;;0.80;;
20140;SDS011;10231;47.702;9.826;2022-07-12T13:20:18;0.70;;;0.70;;
20140;SDS011;10231;47.702;9.826;2022-07-12T13:22:44;1.93;;;0.83;;
20140;SDS011;10231;47.702;9.826;2022-07-12T13:25:11;1.43;;;0.83;;
20140;SDS011;10231;47.702;9.826;2022-07-12T13:27:39;0.87;;;0.87;;
20140;SDS011;10231;47.702;9.826;2022-07-12T13:30:06;0.80;;;0.80;;
20140;SDS011;10231;47.702;9.826;2022-07-12T13:32:33;1.60;;;1.17;;
20140;SDS011;10231;47.702;9.826;2022-07-12T13:34:59;1.00;;;1.00;;
20140;SDS011;10231;47.702;9.826;2022-07-12T13:37:26;1.10;;;1.10;;
20140;SDS011;10231;47.702;9.826;2022-07-12T13:39:52;0.83;;;0.70;;
20140;SDS011;10231;47.702;9.826;2022-07-12T13:42:37;0.97;;;0.90;;
20140;SDS011;10231;47.702;9.826;2022-07-12T13:45:04;0.80;;;0.80;;
20140;SDS011;10231;47.702;9.826;2022-07-12T13:47:30;2.13;;;0.80;;
20140;SDS011;10231;47.702;9.826;2022-07-12T13:49:55;0.70;;;0.70;;
20140;SDS011;10231;47.702;9.826;2022-07-12T13:52:21;1.00;;;1.00;;
20140;SDS011;10231;47.702;9.826;2022-07-12T13:54:47;0.90;;;0.90;;
20140;SDS011;10231;47.702;9.826;2022-07-12T13:57:12;1.23;;;0.70;;
20140;SDS011;10231;47.702;9.826;2022-07-12T13:59:38;0.80;;;0.80;;
20140;SDS011;10231;47.702;9.826;2022-07-12T14:02:04;1.13;;;0.80;;
20140;SDS011;10231;47.702;9.826;2022-07-12T14:04:30;0.70;;;0.70;;
20140;SDS011;10231;47.702;9.826;2022-07-12T14:06:56;2.07;;;0.70;;
20140;SDS011;10231;47.702;9.826;2022-07-12T14:09:22;0.80;;;0.80;;
20140;SDS011;10231;47.702;9.826;2022-07-12T14:11:48;1.53;;;0.80;;
20140;SDS011;10231;47.702;9.826;2022-07-12T14:14:15;0.87;;;0.87;;
20140;SDS011;10231;47.702;9.826;2022-07-12T14:16:42;0.77;;;0.70;;
20140;SDS011;10231;47.702;9.826;2022-07-12T14:19:07;0.50;;;0.50;;
20140;SDS011;10231;47.702;9.826;2022-07-12T14:21:33;0.97;;;0.97;;
20140;SDS011;10231;47.702;9.826;2022-07-12T14:23:59;2.30;;;0.70;;
20140;SDS011;10231;47.702;9.826;2022-07-12T14:26:26;0.77;;;0.67;;
20140;SDS011;10231;47.702;9.826;2022-07-12T14:28:52;1.13;;;0.77;;
20140;SDS011;10231;47.702;9.826;2022-07-12T14:31:17;1.70;;;0.90;;
20140;SDS011;10231;47.702;9.826;2022-07-12T14:33:43;0.57;;;0.57;;
20140;SDS011;10231;47.702;9.826;2022-07-12T14:36:09;1.07;;;0.80;;
20140;SDS011;10231;47.702;9.826;2022-07-12T14:38:34;0.80;;;0.53;;
20140;SDS011;10231;47.702;9.826;2022-07-12T14:41:00;0.80;;;0.70;;
20140;SDS011;10231;47.702;9.826;2022-07-12T14:43:26;0.80;;;0.80;;
20140;SDS011;10231;47.702;9.826;2022-07-12T14:45:52;0.53;;;0.47;;
20140;SDS011;10231;47.702;9.826;2022-07-12T14:48:17;0.70;;;0.60;;
20140;SDS011;10231;47.702;9.826;2022-07-12T14:50:43;0.47;;;0.47;;
20140;SDS011;10231;47.702;9.826;2022-07-12T14:53:08;0.40;;;0.40;;
20140;SDS011;10231;47.702;9.826;2022-07-12T14:55:34;0.60;;;0.60;;
20140;SDS011;10231;47.702;9.826;2022-07-12T14:58:00;0.50;;;0.50;;
20140;SDS011;10231;47.702;9.826;2022-07-12T15:00:26;0.50;;;0.50;;
20140;SDS011;10231;47.702;9.826;2022-07-12T15:02:53;1.53;;;0.80;;
20140;SDS011;10231;47.702;9.826;2022-07-12T15:05:24;2.20;;;0.70;;
20140;SDS011;10231;47.702;9.826;2022-07-12T15:07:50;0.57;;;0.57;;